Hanover, Michigan
Current Conditions -  °F | °C
As of 1:56 PM on Monday 20 Oct 2014 (Local Time) from KJXN Reporting Station
Overcast Overcast  
Wind Chill: 54°   Ceiling: 1900
Heat Index: 54°   Visibility: 10mi
Dew Point: 46°   Wind: 12mph
Humidity: 75%   Direction: 250°WSW
Pressure: 29.8"   Gusts: 18mph
Location:  42.1°N, 84.55°W
Report Text: KJXN 201756Z 25010G16KT 10SM OVC019 12/08 A2980 RMK AO2 SLP091 T01220078 10128 20078 56009
Loading
Personal Weather Stations






























Interactive Weather Map
Tropical Storm Tracking
New forecast layout! Learn more

10-Day Weather Forecast

Advertisements
Track Severe Weather on mobile